Time;durP1;ratioP1;P1;durP2;ratioP2;P2;SDS_P1;SDS_P2;PMS_P1;PMS_P2;Temp;Humidity;BMP_temperature;BMP_pressure;BME280_temperature;BME280_humidity;BME280_pressure;Samples;Min_cycle;Max_cycle;Signal;HPM_P1;HPM_P2
2022/03/22 00:00:09;;;;;;;19.17;15.47;;;-0.40;99.90;;;;;;5049887;28;20893;-84
2022/03/22 00:02:35;;;;;;;18.13;15.38;;;-0.50;99.90;;;;;;5051061;28;20840;-84
2022/03/22 00:05:01;;;;;;;19.52;15.30;;;-0.50;99.90;;;;;;5053868;28;20390;-84
2022/03/22 00:07:27;;;;;;;20.10;15.13;;;-0.60;99.90;;;;;;5052729;28;20408;-84
2022/03/22 00:09:53;;;;;;;18.70;15.43;;;-0.60;99.90;;;;;;5054107;28;20499;-84
2022/03/22 00:12:19;;;;;;;18.85;15.27;;;-0.60;99.90;;;;;;5054061;28;20595;-84
2022/03/22 00:14:45;;;;;;;18.80;15.83;;;-0.60;99.90;;;;;;5052540;28;20482;-84
2022/03/22 00:17:11;;;;;;;18.93;15.87;;;-0.60;99.90;;;;;;5053251;28;20908;-84
2022/03/22 00:19:37;;;;;;;21.90;15.38;;;-0.70;99.90;;;;;;5042060;28;20396;-84
2022/03/22 00:22:03;;;;;;;19.27;16.50;;;-0.70;99.90;;;;;;5033662;28;20385;-84
2022/03/22 00:24:29;;;;;;;20.88;16.27;;;-0.60;99.90;;;;;;5032239;28;20775;-84
2022/03/22 00:26:55;;;;;;;19.50;16.50;;;-0.70;99.90;;;;;;5031880;28;20381;-84
2022/03/22 00:29:21;;;;;;;19.45;16.75;;;-0.70;99.90;;;;;;5033416;28;20512;-84
2022/03/22 00:31:46;;;;;;;18.65;16.65;;;-0.70;99.90;;;;;;5043708;28;20896;-84
2022/03/22 00:34:13;;;;;;;20.30;16.27;;;-0.70;99.90;;;;;;5053887;28;20905;-84
2022/03/22 00:36:41;;;;;;;20.33;17.13;;;-0.70;99.90;;;;;;5054368;28;20421;-84
2022/03/22 00:39:07;;;;;;;18.38;16.27;;;-0.80;99.90;;;;;;5053378;28;20870;-84
2022/03/22 00:41:33;;;;;;;20.15;16.60;;;-0.70;99.90;;;;;;5053610;28;20861;-84
2022/03/22 00:43:59;;;;;;;20.67;16.77;;;-0.80;99.90;;;;;;5053981;28;20376;-84
2022/03/22 00:46:25;;;;;;;23.90;17.25;;;-0.80;99.90;;;;;;5053711;28;20418;-84
2022/03/22 00:48:50;;;;;;;21.63;16.67;;;-0.80;99.90;;;;;;5053670;28;20387;-83
2022/03/22 00:51:16;;;;;;;19.95;17.08;;;-0.70;99.90;;;;;;5052609;28;20459;-84
2022/03/22 00:53:42;;;;;;;20.98;18.02;;;-0.90;99.90;;;;;;5052460;28;20731;-84
2022/03/22 00:56:08;;;;;;;20.77;17.38;;;-0.90;99.90;;;;;;5052808;28;20407;-84
2022/03/22 00:58:34;;;;;;;21.40;17.42;;;-0.90;99.90;;;;;;5053653;28;20402;-83
2022/03/22 01:01:00;;;;;;;20.65;17.23;;;-0.90;99.90;;;;;;5052522;28;20384;-84
2022/03/22 01:03:29;;;;;;;19.25;17.10;;;-0.90;99.90;;;;;;5052578;28;20429;-84
2022/03/22 01:05:56;;;;;;;22.10;17.42;;;-0.90;99.90;;;;;;5052401;28;20392;-84
2022/03/22 01:08:23;;;;;;;19.92;17.40;;;-0.90;99.90;;;;;;5052010;28;20481;-84
2022/03/22 01:10:52;;;;;;;20.88;17.13;;;-0.90;99.90;;;;;;5050855;28;20411;-84
2022/03/22 01:13:20;;;;;;;21.97;18.03;;;-1.00;99.90;;;;;;5050234;28;20396;-83
2022/03/22 01:15:49;;;;;;;20.48;16.67;;;-0.90;99.90;;;;;;5050538;28;20372;-84
2022/03/22 01:18:15;;;;;;;19.20;16.55;;;-0.90;99.90;;;;;;5050233;28;20410;-84
2022/03/22 01:20:47;;;;;;;19.10;17.08;;;-1.00;99.90;;;;;;5051612;28;20939;-84
2022/03/22 01:23:15;;;;;;;21.80;17.15;;;-1.00;99.90;;;;;;5050113;28;20483;-84
2022/03/22 01:25:43;;;;;;;19.50;17.35;;;-1.00;99.90;;;;;;5030550;28;20386;-84
2022/03/22 01:28:11;;;;;;;20.33;17.30;;;-1.00;99.90;;;;;;5032364;28;20452;-84
2022/03/22 01:30:37;;;;;;;19.97;17.33;;;-1.10;99.90;;;;;;5032371;28;20871;-84
2022/03/22 01:33:04;;;;;;;21.23;17.20;;;-1.10;99.90;;;;;;5050000;28;20463;-83
2022/03/22 01:35:30;;;;;;;21.47;17.87;;;-1.10;99.90;;;;;;5051654;28;20574;-84
2022/03/22 01:37:56;;;;;;;21.67;17.80;;;-1.10;99.90;;;;;;5051968;28;20910;-84
2022/03/22 01:40:24;;;;;;;18.73;16.73;;;-1.20;99.90;;;;;;5051702;28;20380;-84
2022/03/22 01:42:50;;;;;;;22.13;17.40;;;-1.20;99.90;;;;;;5051603;28;20476;-84
2022/03/22 01:45:16;;;;;;;20.45;17.77;;;-1.20;99.90;;;;;;5050655;28;20384;-83
2022/03/22 01:47:43;;;;;;;20.83;17.17;;;-1.20;99.90;;;;;;5052286;28;20395;-85
2022/03/22 01:50:14;;;;;;;20.75;17.45;;;-1.30;99.90;;;;;;5050657;28;20502;-84
2022/03/22 01:52:42;;;;;;;20.20;18.00;;;-1.30;99.90;;;;;;5049473;28;20394;-84
2022/03/22 01:55:09;;;;;;;22.27;18.48;;;-1.30;99.90;;;;;;5051262;28;20384;-84
2022/03/22 01:57:35;;;;;;;19.15;17.08;;;-1.30;99.90;;;;;;5049957;28;20381;-84
2022/03/22 02:00:08;;;;;;;21.63;18.05;;;-1.40;99.90;;;;;;5049662;28;20410;-83
2022/03/22 02:08:08;;;;;;;22.83;18.63;;;-1.30;99.90;;;;;;5051306;28;20426;-83
2022/03/22 02:10:34;;;;;;;20.60;18.27;;;-1.30;99.90;;;;;;5049461;28;20411;-84
2022/03/22 02:13:00;;;;;;;20.58;18.10;;;-1.30;99.90;;;;;;5050830;28;20379;-84
2022/03/22 02:15:26;;;;;;;21.30;18.20;;;-1.30;99.90;;;;;;5049174;28;20457;-84
2022/03/22 02:17:52;;;;;;;20.83;18.47;;;-1.40;99.90;;;;;;5049392;28;20383;-83
2022/03/22 02:20:18;;;;;;;20.48;18.25;;;-1.30;99.90;;;;;;5049652;28;20734;-84
2022/03/22 02:23:02;;;;;;;21.83;18.63;;;-1.30;99.90;;;;;;5049935;28;20376;-84
2022/03/22 02:25:28;;;;;;;19.47;16.83;;;-1.20;99.90;;;;;;5049375;28;20386;-84
2022/03/22 02:27:57;;;;;;;23.70;18.70;;;-1.20;99.90;;;;;;5051702;28;20372;-84
2022/03/22 02:30:23;;;;;;;25.30;19.10;;;-1.30;99.90;;;;;;5036240;28;20421;-85
2022/03/22 02:32:56;;;;;;;20.55;17.88;;;-1.30;99.90;;;;;;5050501;28;20459;-84
2022/03/22 02:35:22;;;;;;;20.88;18.58;;;-1.40;99.90;;;;;;5051424;28;20427;-83
2022/03/22 02:37:49;;;;;;;21.77;18.70;;;-1.50;99.90;;;;;;5051206;28;20388;-86
2022/03/22 02:40:16;;;;;;;20.90;18.52;;;-1.50;99.90;;;;;;5049909;28;20416;-84
2022/03/22 02:42:47;;;;;;;20.60;18.20;;;-1.60;99.90;;;;;;5050396;28;20471;-84
2022/03/22 02:45:13;;;;;;;22.65;18.60;;;-1.70;99.90;;;;;;5050308;28;20387;-84
2022/03/22 02:47:40;;;;;;;19.23;17.17;;;-1.80;99.90;;;;;;5053919;28;20379;-85
2022/03/22 02:50:06;;;;;;;24.83;19.20;;;-1.80;99.90;;;;;;5054287;28;20430;-84
2022/03/22 02:52:33;;;;;;;22.70;18.42;;;-1.80;99.90;;;;;;5053989;28;20897;-85
2022/03/22 02:54:58;;;;;;;21.10;18.48;;;-1.80;99.90;;;;;;5051096;28;20408;-84
2022/03/22 02:57:24;;;;;;;21.30;17.43;;;-1.90;99.90;;;;;;5052273;28;20893;-83
2022/03/22 02:59:50;;;;;;;24.37;19.40;;;-1.90;99.90;;;;;;5051963;28;20486;-84
2022/03/22 03:02:15;;;;;;;22.37;18.50;;;-1.90;99.90;;;;;;5052131;28;20404;-84
2022/03/22 03:04:41;;;;;;;21.97;18.23;;;-2.00;99.90;;;;;;5051532;28;20384;-84
2022/03/22 03:07:07;;;;;;;21.23;18.40;;;-2.00;99.90;;;;;;5050547;28;20372;-85
2022/03/22 03:09:33;;;;;;;22.73;18.80;;;-2.00;99.90;;;;;;5051882;28;20913;-83
2022/03/22 03:11:59;;;;;;;20.48;18.02;;;-1.80;99.90;;;;;;5050735;28;20398;-84
2022/03/22 03:14:40;;;;;;;20.42;17.88;;;-2.50;99.90;;;;;;5050181;28;20410;-84
2022/03/22 03:17:07;;;;;;;21.48;18.63;;;-2.70;99.90;;;;;;5050435;28;20905;-84
2022/03/22 03:19:33;;;;;;;22.42;18.58;;;-1.70;99.90;;;;;;5052265;28;20375;-84
2022/03/22 03:21:58;;;;;;;22.50;18.65;;;-2.40;99.90;;;;;;5051485;28;20380;-84
2022/03/22 03:24:24;;;;;;;22.17;18.33;;;-1.80;99.90;;;;;;5049119;28;20785;-83
2022/03/22 03:26:50;;;;;;;22.63;18.55;;;-2.10;99.90;;;;;;5050568;28;20387;-84
2022/03/22 03:29:16;;;;;;;22.48;18.45;;;-2.10;99.90;;;;;;5050554;28;20408;-83
2022/03/22 03:31:44;;;;;;;21.17;18.25;;;;;;;;;;5049870;28;20392;-83
2022/03/22 03:34:10;;;;;;;23.00;18.67;;;;;;;;;;5049639;28;20897;-83
2022/03/22 03:36:36;;;;;;;22.88;18.45;;;;;;;;;;5051990;28;20781;-85
2022/03/22 03:39:03;;;;;;;22.42;19.25;;;-2.20;99.90;;;;;;5055105;28;20375;-83
2022/03/22 03:47:11;;;;;;;31.50;19.55;;;;;;;;;;5055284;28;20394;-84
2022/03/22 03:49:42;;;;;;;24.58;19.17;;;-2.20;99.90;;;;;;5055122;28;20486;-82
2022/03/22 03:52:17;;;;;;;22.92;18.80;;;-2.10;99.90;;;;;;5056230;28;20442;-83
2022/03/22 03:54:43;;;;;;;23.90;18.70;;;-2.20;99.90;;;;;;5053572;28;20403;-84
2022/03/22 03:57:09;;;;;;;24.80;19.40;;;-2.30;99.90;;;;;;5053483;28;21259;-83
2022/03/22 03:59:36;;;;;;;24.92;19.85;;;-2.30;99.90;;;;;;5053620;28;20399;-82
2022/03/22 04:02:04;;;;;;;32.80;20.05;;;-2.30;99.90;;;;;;5053862;28;20889;-84
2022/03/22 04:04:30;;;;;;;25.27;20.33;;;-2.20;99.90;;;;;;5053345;28;20384;-83
2022/03/22 04:06:56;;;;;;;24.13;19.80;;;-2.30;99.90;;;;;;5053735;28;20383;-83
2022/03/22 04:09:21;;;;;;;22.88;19.70;;;-2.30;99.90;;;;;;5054334;28;20988;-83
2022/03/22 04:11:47;;;;;;;23.13;19.97;;;-2.40;99.90;;;;;;5055646;28;20376;-83
2022/03/22 04:14:13;;;;;;;21.93;19.47;;;-2.40;99.90;;;;;;5055198;28;20380;-83
2022/03/22 04:16:40;;;;;;;26.45;19.83;;;-2.40;99.90;;;;;;5057987;28;20472;-84
2022/03/22 04:19:07;;;;;;;23.45;19.63;;;-2.40;99.90;;;;;;5058773;28;20483;-84
2022/03/22 04:21:36;;;;;;;20.42;18.25;;;-2.50;99.90;;;;;;5059117;28;20738;-85
2022/03/22 04:24:07;;;;;;;24.00;20.45;;;-2.50;99.90;;;;;;5059928;28;20415;-83
2022/03/22 04:26:38;;;;;;;23.55;20.02;;;-2.50;99.90;;;;;;5060442;28;20782;-83
2022/03/22 04:32:41;;;;;;;21.85;19.45;;;-2.50;99.90;;;;;;5063807;28;20403;-83
2022/03/22 04:34:42;;;;;;;23.10;19.30;;;-2.50;99.90;;;;;;5063265;28;20384;-84
2022/03/22 04:37:10;;;;;;;24.40;19.73;;;-2.50;99.90;;;;;;5062980;28;20398;-83
2022/03/22 04:39:36;;;;;;;33.95;20.88;;;-2.60;99.90;;;;;;5062526;28;20442;-82
2022/03/22 04:42:02;;;;;;;36.13;20.65;;;-2.70;99.90;;;;;;5060722;28;21071;-83
2022/03/22 04:44:29;;;;;;;33.40;19.75;;;-2.60;99.90;;;;;;5061275;28;20395;-83
2022/03/22 04:46:58;;;;;;;53.17;22.63;;;-2.60;99.90;;;;;;5060590;28;20382;-83
2022/03/22 04:49:26;;;;;;;106.93;29.13;;;-2.60;99.90;;;;;;5061301;28;20412;-83
2022/03/22 04:57:21;;;;;;;24.42;20.40;;;-2.70;99.90;;;;;;5064605;28;20450;-83
2022/03/22 04:59:47;;;;;;;36.60;20.20;;;-2.70;99.90;;;;;;5064280;28;20428;-83
2022/03/22 05:02:14;;;;;;;23.75;19.25;;;-2.70;99.90;;;;;;5064675;28;20390;-83
2022/03/22 05:04:39;;;;;;;27.40;19.63;;;-2.70;99.90;;;;;;5063193;28;20502;-83
2022/03/22 05:07:05;;;;;;;22.60;19.63;;;-2.70;99.90;;;;;;5062387;28;20388;-84
2022/03/22 05:09:31;;;;;;;23.55;20.10;;;-2.70;99.90;;;;;;5063051;28;20400;-84
2022/03/22 05:11:58;;;;;;;66.05;23.52;;;-2.70;99.90;;;;;;5062921;28;20411;-83
2022/03/22 05:14:25;;;;;;;119.17;27.43;;;-2.70;99.90;;;;;;5060706;28;20415;-84
2022/03/22 05:16:50;;;;;;;75.22;24.02;;;-2.70;99.90;;;;;;5059178;28;20384;-84
2022/03/22 05:19:18;;;;;;;70.25;24.65;;;-2.70;99.90;;;;;;5062192;28;20447;-84
2022/03/22 05:21:44;;;;;;;32.13;20.13;;;-2.60;99.90;;;;;;5064201;28;20470;-84
2022/03/22 05:24:10;;;;;;;32.70;20.58;;;-2.60;99.90;;;;;;5042770;28;20370;-83
2022/03/22 05:26:36;;;;;;;27.13;19.80;;;-2.60;99.90;;;;;;5052407;28;20416;-84
2022/03/22 05:29:05;;;;;;;26.23;19.70;;;-2.50;99.90;;;;;;5058753;28;20399;-83
2022/03/22 05:31:32;;;;;;;28.05;20.02;;;-2.50;99.90;;;;;;5061199;28;20473;-84
2022/03/22 05:34:01;;;;;;;25.33;19.55;;;-2.50;99.90;;;;;;5060724;28;20395;-84
2022/03/22 05:36:27;;;;;;;24.23;19.15;;;-2.40;99.90;;;;;;5060307;28;20395;-84
2022/03/22 05:38:53;;;;;;;242.45;40.97;;;-2.30;99.90;;;;;;5043170;28;20387;-83
2022/03/22 05:41:20;;;;;;;105.80;27.03;;;-2.40;99.90;;;;;;5059442;28;20377;-83
2022/03/22 05:43:46;;;;;;;47.90;20.98;;;-2.20;99.90;;;;;;5057889;28;20422;-84
2022/03/22 05:46:11;;;;;;;34.85;20.17;;;-2.10;99.90;;;;;;5058029;28;20408;-84
2022/03/22 05:48:38;;;;;;;40.92;20.02;;;-2.10;99.90;;;;;;5056871;28;20376;-84
2022/03/22 05:51:10;;;;;;;30.40;19.07;;;-2.00;99.90;;;;;;5058357;28;20400;-82
2022/03/22 05:53:37;;;;;;;35.85;19.50;;;-1.90;99.90;;;;;;5057841;28;20395;-83
2022/03/22 05:56:03;;;;;;;24.58;18.25;;;-1.80;99.90;;;;;;5057593;28;20412;-82
2022/03/22 05:58:29;;;;;;;24.77;18.10;;;-1.60;99.90;;;;;;5057559;28;20883;-83
2022/03/22 06:00:55;;;;;;;22.87;17.67;;;-1.40;99.90;;;;;;5055527;28;20790;-83
2022/03/22 06:03:22;;;;;;;26.30;18.75;;;-1.20;99.90;;;;;;5060309;28;20398;-82
2022/03/22 06:05:50;;;;;;;92.93;23.93;;;-1.00;99.90;;;;;;5060915;28;20384;-82
2022/03/22 06:08:16;;;;;;;95.10;24.13;;;-0.80;99.90;;;;;;5060953;28;20419;-85
2022/03/22 06:10:42;;;;;;;24.57;17.47;;;-0.40;99.90;;;;;;5056248;28;20896;-85
2022/03/22 06:13:07;;;;;;;23.17;17.07;;;-0.40;99.90;;;;;;5054662;28;20383;-84
2022/03/22 06:15:34;;;;;;;19.60;16.67;;;-0.10;99.90;;;;;;5055585;28;20383;-83
2022/03/22 06:18:09;;;;;;;23.15;18.05;;;-0.10;99.90;;;;;;5055795;28;20395;-83
2022/03/22 06:20:41;;;;;;;19.35;17.13;;;0.30;99.90;;;;;;5058094;28;20376;-83
2022/03/22 06:23:10;;;;;;;209.23;35.40;;;0.40;99.90;;;;;;5066781;28;20390;-84
2022/03/22 06:25:37;;;;;;;135.73;29.00;;;0.70;99.90;;;;;;5073344;28;20382;-84
2022/03/22 06:28:04;;;;;;;83.72;23.73;;;1.00;99.90;;;;;;5072314;28;20864;-84
2022/03/22 06:30:30;;;;;;;91.05;23.65;;;1.20;99.90;;;;;;5048150;28;20407;-84
2022/03/22 06:32:58;;;;;;;69.22;20.35;;;1.50;99.90;;;;;;5045753;28;20733;-85
2022/03/22 06:35:29;;;;;;;91.63;22.50;;;1.70;99.90;;;;;;5047952;28;20908;-85
2022/03/22 06:37:55;;;;;;;27.38;17.50;;;2.00;99.90;;;;;;5050918;28;20376;-86
2022/03/22 06:40:23;;;;;;;96.90;25.55;;;2.20;99.90;;;;;;5050127;28;20730;-85
2022/03/22 06:42:50;;;;;;;40.83;20.08;;;2.30;99.90;;;;;;5050434;28;20388;-86
2022/03/22 06:45:16;;;;;;;34.97;17.42;;;2.70;99.90;;;;;;5049553;28;20382;-86
2022/03/22 06:47:45;;;;;;;33.75;18.13;;;3.00;99.90;;;;;;5050768;28;20380;-87
2022/03/22 06:50:14;;;;;;;32.25;17.10;;;3.50;99.90;;;;;;5034197;28;20419;-84
2022/03/22 06:52:39;;;;;;;38.60;16.77;;;3.90;99.90;;;;;;5052357;28;20457;-86
2022/03/22 06:55:06;;;;;;;24.33;15.70;;;4.30;99.90;;;;;;5051125;28;20940;-85
2022/03/22 06:57:33;;;;;;;25.93;15.27;;;4.70;99.30;;;;;;5050442;28;20784;-84
2022/03/22 07:00:00;;;;;;;23.25;16.02;;;5.10;98.60;;;;;;5051744;28;20370;-84
2022/03/22 07:02:28;;;;;;;21.50;16.20;;;5.40;97.50;;;;;;5049813;28;20471;-85
2022/03/22 07:04:53;;;;;;;57.95;18.45;;;5.60;96.90;;;;;;5049857;28;20387;-85
2022/03/22 07:07:19;;;;;;;41.97;16.60;;;5.90;96.10;;;;;;5048948;28;20376;-85
2022/03/22 07:09:46;;;;;;;30.30;15.80;;;;;;;;;;5048981;28;20416;-85
2022/03/22 07:12:13;;;;;;;23.42;14.70;;;;;;;;;;5050847;28;20919;-85
2022/03/22 07:14:40;;;;;;;20.08;14.00;;;6.50;93.70;;;;;;5053525;28;20939;-85
2022/03/22 07:17:10;;;;;;;25.03;15.37;;;6.70;93.90;;;;;;5053220;28;20419;-85
2022/03/22 07:19:37;;;;;;;45.70;17.30;;;7.00;93.10;;;;;;5054778;28;20881;-84
2022/03/22 07:22:03;;;;;;;24.92;15.20;;;7.10;92.30;;;;;;5053325;28;20884;-84
2022/03/22 07:24:29;;;;;;;25.77;14.75;;;7.20;92.00;;;;;;5054813;28;20382;-84
2022/03/22 07:26:54;;;;;;;23.20;15.07;;;7.30;91.20;;;;;;5054142;28;20446;-83
2022/03/22 07:29:20;;;;;;;17.50;14.57;;;7.50;91.60;;;;;;5061500;28;20430;-85
2022/03/22 07:31:46;;;;;;;21.92;13.90;;;7.70;90.90;;;;;;5052669;28;20877;-86
2022/03/22 07:34:16;;;;;;;19.05;14.40;;;7.90;89.70;;;;;;5053387;28;21237;-84
2022/03/22 07:36:43;;;;;;;17.83;14.23;;;8.00;87.30;;;;;;5053788;28;20375;-84
2022/03/22 07:39:11;;;;;;;19.98;14.63;;;8.10;88.40;;;;;;5052849;28;20380;-85
2022/03/22 07:41:38;;;;;;;16.75;13.82;;;8.30;87.50;;;;;;5053669;28;20388;-84
2022/03/22 07:44:07;;;;;;;24.50;15.18;;;8.40;86.40;;;;;;5052513;28;20367;-84
2022/03/22 07:46:33;;;;;;;29.45;15.32;;;8.60;85.70;;;;;;5051769;28;20395;-84
2022/03/22 07:54:29;;;;;;;18.45;13.95;;;8.90;83.90;;;;;;5049340;28;20419;-84
2022/03/22 07:56:54;;;;;;;17.70;14.18;;;9.10;86.10;;;;;;5051100;28;20407;-84
2022/03/22 07:59:20;;;;;;;19.98;14.18;;;9.20;85.10;;;;;;5053471;28;20883;-84
2022/03/22 08:01:47;;;;;;;26.75;15.00;;;9.40;84.10;;;;;;5052149;28;20462;-85
2022/03/22 08:04:12;;;;;;;15.68;12.48;;;9.60;80.90;;;;;;5051830;28;20411;-84
2022/03/22 08:06:38;;;;;;;23.08;13.55;;;9.70;81.80;;;;;;5050908;28;20893;-84
2022/03/22 08:09:04;;;;;;;16.75;12.90;;;9.90;81.10;;;;;;5052782;28;20384;-85
2022/03/22 08:11:29;;;;;;;20.93;13.90;;;10.00;78.90;;;;;;5050668;28;20392;-84
2022/03/22 08:13:59;;;;;;;18.07;13.20;;;10.20;82.30;;;;;;5053394;28;20376;-85
2022/03/22 08:16:25;;;;;;;18.33;13.05;;;10.40;80.10;;;;;;5052649;28;20433;-83
2022/03/22 08:18:51;;;;;;;19.10;13.40;;;10.60;78.30;;;;;;5053797;28;20384;-84
2022/03/22 08:21:17;;;;;;;19.07;13.57;;;10.70;77.90;;;;;;5052731;28;20382;-85
2022/03/22 08:23:42;;;;;;;16.55;13.45;;;10.80;75.40;;;;;;5052566;28;20433;-85
2022/03/22 08:26:08;;;;;;;18.03;13.23;;;10.60;73.30;;;;;;5052577;28;20367;-84
2022/03/22 08:28:34;;;;;;;16.02;12.68;;;10.70;73.90;;;;;;5050889;28;20396;-84
2022/03/22 08:30:59;;;;;;;15.05;11.98;;;10.90;75.00;;;;;;5051376;28;20412;-84
2022/03/22 08:33:25;;;;;;;15.37;12.67;;;11.10;75.30;;;;;;5054285;28;20429;-83
2022/03/22 08:35:52;;;;;;;15.73;12.95;;;11.30;74.00;;;;;;5051145;28;20384;-84
2022/03/22 08:38:19;;;;;;;16.17;12.95;;;11.40;73.30;;;;;;5051501;28;20391;-84
2022/03/22 08:40:45;;;;;;;16.15;12.57;;;11.50;72.50;;;;;;5050994;28;20430;-87
2022/03/22 08:43:11;;;;;;;14.98;12.60;;;11.70;74.10;;;;;;5052590;28;20372;-84
2022/03/22 08:45:37;;;;;;;16.63;13.25;;;11.80;72.20;;;;;;5052308;28;20754;-84
2022/03/22 08:48:09;;;;;;;16.33;13.05;;;11.80;70.40;;;;;;5052691;28;20368;-84
2022/03/22 08:50:36;;;;;;;15.10;11.90;;;11.80;71.30;;;;;;5050635;28;20773;-85
2022/03/22 08:53:03;;;;;;;15.85;13.00;;;11.90;69.70;;;;;;5051408;28;20387;-84
2022/03/22 08:55:29;;;;;;;19.17;12.20;;;11.90;68.90;;;;;;5051885;28;20746;-83
2022/03/22 08:57:55;;;;;;;16.83;11.90;;;12.00;69.30;;;;;;5052554;28;20449;-85
2022/03/22 09:00:21;;;;;;;22.15;12.57;;;12.30;68.30;;;;;;5052413;28;20401;-84
2022/03/22 09:02:49;;;;;;;20.55;12.15;;;12.30;68.20;;;;;;5052269;28;20750;-84
2022/03/22 09:08:01;;;;;;;32.10;13.60;;;12.40;66.30;;;;;;5072283;28;20729;-84
2022/03/22 09:10:29;;;;;;;17.75;12.02;;;12.50;67.20;;;;;;5061589;28;20430;-85
2022/03/22 09:12:55;;;;;;;18.03;12.27;;;12.60;68.00;;;;;;5050481;28;20498;-84
2022/03/22 09:15:22;;;;;;;14.00;11.18;;;12.70;65.20;;;;;;5050805;28;20459;-84
2022/03/22 09:17:49;;;;;;;15.73;12.20;;;12.70;65.40;;;;;;5047146;28;20881;-83
2022/03/22 09:20:15;;;;;;;17.15;12.00;;;12.80;66.90;;;;;;5049007;28;20395;-84
2022/03/22 09:22:45;;;;;;;16.60;11.80;;;12.90;65.60;;;;;;5051420;28;20378;-85
2022/03/22 09:25:12;;;;;;;17.92;11.90;;;13.10;65.60;;;;;;5051745;28;20475;-83
2022/03/22 09:27:39;;;;;;;18.70;11.32;;;13.20;64.30;;;;;;5049055;28;20391;-84
2022/03/22 09:30:05;;;;;;;13.73;11.80;;;13.40;64.80;;;;;;5050893;28;20403;-84
2022/03/22 09:32:32;;;;;;;14.13;11.80;;;13.50;63.20;;;;;;5049548;28;20396;-83
2022/03/22 09:35:00;;;;;;;14.43;11.55;;;13.50;63.20;;;;;;5048321;28;20399;-83
2022/03/22 09:37:27;;;;;;;16.02;11.82;;;13.60;64.90;;;;;;5049665;28;20383;-84
2022/03/22 09:39:53;;;;;;;14.15;11.63;;;13.70;63.30;;;;;;5050054;28;20384;-84
2022/03/22 09:42:19;;;;;;;12.80;11.30;;;13.90;62.50;;;;;;5050605;28;20376;-83
2022/03/22 09:44:49;;;;;;;12.82;10.77;;;;;;;;;;5050877;28;20798;-83
2022/03/22 09:47:16;;;;;;;14.33;11.00;;;;;;;;;;5049780;28;20431;-83
2022/03/22 09:49:42;;;;;;;19.45;11.98;;;;;;;;;;5049563;28;20400;-84
2022/03/22 09:52:09;;;;;;;16.13;12.05;;;;;;;;;;5049689;28;20480;-82
2022/03/22 09:54:35;;;;;;;17.53;11.30;;;;;;;;;;5050011;28;20372;-84
2022/03/22 09:57:04;;;;;;;14.18;11.00;;;;;;;;;;5050263;28;20392;-84
2022/03/22 09:59:31;;;;;;;12.75;10.75;;;;;;;;;;5050322;28;20455;-84
2022/03/22 10:02:00;;;;;;;12.60;9.98;;;;;;;;;;5044426;28;20445;-84
2022/03/22 10:04:35;;;;;;;13.57;10.15;;;;;;;;;;5040943;28;20367;-84
2022/03/22 10:07:03;;;;;;;14.32;10.68;;;;;;;;;;5043621;28;20470;-82
2022/03/22 10:09:33;;;;;;;11.93;9.97;;;;;;;;;;5039359;28;20463;-83
2022/03/22 10:12:00;;;;;;;13.82;9.90;;;;;;;;;;5038956;28;20387;-83
2022/03/22 10:14:52;;;;;;;12.35;9.57;;;;;;;;;;5038253;28;20396;-82
2022/03/22 10:17:18;;;;;;;14.20;9.68;;;;;;;;;;5037640;28;20946;-81
2022/03/22 10:19:53;;;;;;;15.40;10.50;;;;;;;;;;5039092;28;20376;-83
2022/03/22 10:22:23;;;;;;;17.90;10.52;;;;;;;;;;5039867;28;20388;-83
2022/03/22 10:24:55;;;;;;;12.93;10.70;;;;;;;;;;5038219;28;20529;-83
2022/03/22 10:27:26;;;;;;;14.43;10.75;;;;;;;;;;5038965;28;20413;-83
2022/03/22 10:29:52;;;;;;;13.85;10.93;;;;;;;;;;5041627;28;20451;-83
2022/03/22 10:32:19;;;;;;;12.43;10.13;;;;;;;;;;5043242;28;20411;-84
2022/03/22 10:34:45;;;;;;;12.88;10.35;;;;;;;;;;5039699;28;20876;-84
2022/03/22 10:37:11;;;;;;;13.35;9.70;;;;;;;;;;5039552;28;20379;-82
2022/03/22 10:39:41;;;;;;;13.93;9.40;;;;;;;;;;5043736;28;20360;-83
2022/03/22 10:42:08;;;;;;;12.10;10.60;;;;;;;;;;5043029;28;20395;-83
2022/03/22 10:44:36;;;;;;;13.15;10.68;;;;;;;;;;5038625;28;20400;-83
2022/03/22 10:47:02;;;;;;;14.45;10.70;;;;;;;;;;5040802;28;20391;-83
2022/03/22 10:49:29;;;;;;;14.82;11.15;;;;;;;;;;5036682;28;20409;-83
2022/03/22 10:51:58;;;;;;;15.95;10.43;;;;;;;;;;5037191;28;20381;-82
2022/03/22 10:54:24;;;;;;;15.13;11.07;;;;;;;;;;5036531;28;20386;-83
2022/03/22 10:56:51;;;;;;;18.98;10.70;;;;;;;;;;5040097;28;20751;-83
2022/03/22 10:59:18;;;;;;;15.80;11.30;;;;;;;;;;5044412;28;20420;-83
2022/03/22 11:01:45;;;;;;;11.37;10.17;;;;;;;;;;5040063;28;20798;-82
2022/03/22 11:04:15;;;;;;;14.95;11.48;;;;;;;;;;5036903;28;20379;-83
2022/03/22 11:06:41;;;;;;;14.60;10.27;;;;;;;;;;5038215;28;20405;-83
2022/03/22 11:09:08;;;;;;;13.43;10.45;;;;;;;;;;5039650;28;20877;-82
2022/03/22 11:11:35;;;;;;;53.17;14.48;;;;;;;;;;5039563;28;20417;-82
2022/03/22 11:14:01;;;;;;;16.48;10.90;;;;;;;;;;5039868;28;20410;-82
2022/03/22 11:16:28;;;;;;;12.70;10.85;;;;;;;;;;5037719;28;20484;-83
2022/03/22 11:18:56;;;;;;;13.23;10.68;;;;;;;;;;5039326;28;20389;-84
2022/03/22 11:21:22;;;;;;;16.50;10.93;;;;;;;;;;5042080;28;20380;-84
2022/03/22 11:23:49;;;;;;;12.68;10.50;;;;;;;;;;5045339;28;20919;-84
2022/03/22 11:26:20;;;;;;;14.88;10.48;;;;;;;;;;5035768;28;20440;-83
2022/03/22 11:28:50;;;;;;;11.65;10.23;;;;;;;;;;5039939;28;20450;-83
2022/03/22 11:31:19;;;;;;;15.10;10.63;;;;;;;;;;5037290;28;20408;-83
2022/03/22 11:36:41;;;;;;;12.93;10.77;;;;;;;;;;5040244;28;20371;-82
2022/03/22 11:39:07;;;;;;;14.82;11.00;;;;;;;;;;5040756;28;20887;-83
2022/03/22 11:44:23;;;;;;;13.43;10.17;;;;;;;;;;5043472;28;20405;-83
2022/03/22 11:47:02;;;;;;;14.60;11.25;;;;;;;;;;5039216;28;20514;-84
2022/03/22 11:49:28;;;;;;;12.18;10.60;;;;;;;;;;5038400;28;20404;-83
2022/03/22 11:51:54;;;;;;;13.55;10.98;;;;;;;;;;5040775;28;20433;-82
2022/03/22 11:54:21;;;;;;;11.45;9.98;;;;;;;;;;5039824;28;20478;-83
2022/03/22 11:56:51;;;;;;;15.02;9.90;;;;;;;;;;5038068;28;20374;-84
2022/03/22 11:59:19;;;;;;;33.67;11.25;;;;;;;;;;5039837;28;20434;-84
2022/03/22 12:02:01;;;;;;;12.80;10.00;;;;;;;;;;5042120;28;20389;-83
2022/03/22 12:04:43;;;;;;;12.48;10.63;;;;;;;;;;5043600;28;20445;-84
2022/03/22 12:07:10;;;;;;;14.07;10.30;;;;;;;;;;5041549;28;20741;-84
2022/03/22 12:09:43;;;;;;;13.50;10.75;;;;;;;;;;5040107;28;20389;-84
2022/03/22 12:12:11;;;;;;;15.00;10.32;;;;;;;;;;5040967;28;20476;-84
2022/03/22 12:14:38;;;;;;;13.40;10.45;;;;;;;;;;5043556;28;20872;-83
2022/03/22 12:17:05;;;;;;;13.40;10.43;;;;;;;;;;5042772;28;20917;-84
2022/03/22 12:19:34;;;;;;;13.93;10.85;;;;;;;;;;5047910;28;20384;-84
2022/03/22 12:22:00;;;;;;;12.63;10.18;;;;;;;;;;5041708;28;20754;-85
2022/03/22 12:24:30;;;;;;;14.27;9.95;;;;;;;;;;5039258;28;20781;-84
2022/03/22 12:26:58;;;;;;;20.13;10.85;;;;;;;;;;5043295;28;20377;-84
2022/03/22 12:29:25;;;;;;;15.57;10.05;;;;;;;;;;5045885;28;20427;-83
2022/03/22 12:31:52;;;;;;;17.88;10.45;;;;;;;;;;5041843;28;20395;-84
2022/03/22 12:34:18;;;;;;;11.25;9.63;;;;;;;;;;5042166;28;20380;-83
2022/03/22 12:36:44;;;;;;;13.38;9.77;;;;;;;;;;5042598;28;20372;-83
2022/03/22 12:39:11;;;;;;;10.27;9.13;;;;;;;;;;5042997;28;20457;-82
2022/03/22 12:41:37;;;;;;;12.07;9.55;;;;;;;;;;5044339;28;20373;-83
2022/03/22 12:44:04;;;;;;;44.00;12.10;;;;;;;;;;5041023;28;20860;-84
2022/03/22 12:46:30;;;;;;;16.63;9.60;;;;;;;;;;5040563;28;20402;-83
2022/03/22 12:48:57;;;;;;;12.38;9.25;;;;;;;;;;5043355;28;20415;-83
2022/03/22 12:51:25;;;;;;;23.15;10.20;;;;;;;;;;5039556;28;20405;-84
2022/03/22 12:53:51;;;;;;;20.37;10.03;;;;;;;;;;5042321;28;20403;-84
2022/03/22 12:56:18;;;;;;;14.13;9.38;;;;;;;;;;5040068;28;20371;-84
2022/03/22 12:58:44;;;;;;;15.43;10.13;;;;;;;;;;5039216;28;20376;-83
2022/03/22 13:01:10;;;;;;;11.75;9.15;;;;;;;;;;5041253;28;20395;-83
2022/03/22 13:03:38;;;;;;;12.73;9.20;;;;;;;;;;5039366;28;20383;-84
2022/03/22 13:06:06;;;;;;;13.17;8.67;;;;;;;;;;5041847;28;20429;-84
2022/03/22 13:11:35;;;;;;;16.50;10.73;;;;;;;;;;4988848;28;20388;-82
2022/03/22 13:16:55;;;;;;;12.43;9.75;;;;;;;;;;5041913;28;20379;-85
2022/03/22 13:19:22;;;;;;;14.88;10.40;;;;;;;;;;5040936;28;20415;-84
2022/03/22 13:21:48;;;;;;;35.27;11.00;;;;;;;;;;5042147;28;20413;-84
2022/03/22 13:24:20;;;;;;;12.50;9.57;;;;;;;;;;5042384;28;20404;-83
2022/03/22 13:26:54;;;;;;;18.75;9.75;;;;;;;;;;5038376;28;20897;-83
2022/03/22 13:29:21;;;;;;;13.48;9.38;;;;;;;;;;5041297;28;20360;-83
2022/03/22 13:31:58;;;;;;;23.77;10.77;;;;;;;;;;5044015;28;20440;-84
2022/03/22 13:34:24;;;;;;;14.05;9.27;;;;;;;;;;5040825;28;20381;-83
2022/03/22 13:36:51;;;;;;;39.40;11.15;;;;;;;;;;5038468;28;20374;-83
2022/03/22 13:39:24;;;;;;;13.40;9.40;;;;;;;;;;5041618;28;20397;-84